Circleville, Kansas
Current Conditions -  °F | °C
As of 5:27 AM on Saturday 22 Nov 2014 (Local Time) from KTOP Reporting Station
Haze Haze  
Wind Chill: 43°   Ceiling: 600
Heat Index: 43°   Visibility: 2mi
Dew Point: 42°   Wind: 0mph
Humidity: 97%   Direction: NA
Pressure: 29.98"   Gusts: NA
Location:  39.51°N, 95.86°W
Report Text: KTOP 221127Z AUTO 00000KT 2SM BR OVC006 06/06 A2998 RMK AO2 T00610056
Loading
Personal Weather Stations






























Interactive Weather Map New forecast layout! Learn more

10-Day Weather Forecast

Advertisements
Track Severe Weather on mobile